sensor_id;sensor_type;location;lat;lon;timestamp;P1;durP1;ratioP1;P2;durP2;ratioP2
11064;SDS011;5585;52.530;7.320;2022-09-21T00:00:39;3.00;;;2.03;;
11064;SDS011;5585;52.530;7.320;2022-09-21T00:03:05;3.97;;;1.93;;
11064;SDS011;5585;52.530;7.320;2022-09-21T00:05:32;3.57;;;2.27;;
11064;SDS011;5585;52.530;7.320;2022-09-21T00:08:01;4.37;;;2.10;;
11064;SDS011;5585;52.530;7.320;2022-09-21T00:10:28;2.83;;;2.00;;
11064;SDS011;5585;52.530;7.320;2022-09-21T00:12:55;2.80;;;2.10;;
11064;SDS011;5585;52.530;7.320;2022-09-21T00:15:21;3.10;;;1.97;;
11064;SDS011;5585;52.530;7.320;2022-09-21T00:17:51;2.60;;;1.70;;
11064;SDS011;5585;52.530;7.320;2022-09-21T00:20:17;2.87;;;2.00;;
11064;SDS011;5585;52.530;7.320;2022-09-21T00:22:44;4.10;;;1.90;;
11064;SDS011;5585;52.530;7.320;2022-09-21T00:25:12;2.60;;;2.20;;
11064;SDS011;5585;52.530;7.320;2022-09-21T00:27:39;2.97;;;2.10;;
11064;SDS011;5585;52.530;7.320;2022-09-21T00:30:06;3.13;;;2.00;;
11064;SDS011;5585;52.530;7.320;2022-09-21T00:32:33;2.37;;;1.80;;
11064;SDS011;5585;52.530;7.320;2022-09-21T00:35:00;2.60;;;1.70;;
11064;SDS011;5585;52.530;7.320;2022-09-21T00:37:27;2.80;;;1.73;;
11064;SDS011;5585;52.530;7.320;2022-09-21T00:39:54;3.23;;;1.77;;
11064;SDS011;5585;52.530;7.320;2022-09-21T00:42:23;3.13;;;2.10;;
11064;SDS011;5585;52.530;7.320;2022-09-21T00:44:51;3.73;;;1.80;;
11064;SDS011;5585;52.530;7.320;2022-09-21T00:47:21;3.57;;;1.57;;
11064;SDS011;5585;52.530;7.320;2022-09-21T00:49:49;2.67;;;1.57;;
11064;SDS011;5585;52.530;7.320;2022-09-21T00:52:18;2.03;;;1.50;;
11064;SDS011;5585;52.530;7.320;2022-09-21T00:54:47;4.23;;;1.97;;
11064;SDS011;5585;52.530;7.320;2022-09-21T00:57:15;4.17;;;1.57;;
11064;SDS011;5585;52.530;7.320;2022-09-21T00:59:43;2.53;;;1.80;;
11064;SDS011;5585;52.530;7.320;2022-09-21T01:02:10;2.87;;;1.70;;
11064;SDS011;5585;52.530;7.320;2022-09-21T01:04:37;2.60;;;1.33;;
11064;SDS011;5585;52.530;7.320;2022-09-21T01:07:04;2.03;;;1.40;;
11064;SDS011;5585;52.530;7.320;2022-09-21T01:09:31;2.70;;;1.97;;
11064;SDS011;5585;52.530;7.320;2022-09-21T01:12:02;2.37;;;1.40;;
11064;SDS011;5585;52.530;7.320;2022-09-21T01:14:37;1.97;;;1.63;;
11064;SDS011;5585;52.530;7.320;2022-09-21T01:17:07;1.53;;;1.37;;
11064;SDS011;5585;52.530;7.320;2022-09-21T01:22:32;2.77;;;1.60;;
11064;SDS011;5585;52.530;7.320;2022-09-21T01:25:04;1.87;;;1.20;;
11064;SDS011;5585;52.530;7.320;2022-09-21T01:27:52;6.10;;;1.50;;
11064;SDS011;5585;52.530;7.320;2022-09-21T01:30:21;2.60;;;1.40;;
11064;SDS011;5585;52.530;7.320;2022-09-21T01:32:50;2.10;;;1.40;;
11064;SDS011;5585;52.530;7.320;2022-09-21T01:35:18;2.93;;;1.40;;
11064;SDS011;5585;52.530;7.320;2022-09-21T01:37:46;2.43;;;1.43;;
11064;SDS011;5585;52.530;7.320;2022-09-21T01:40:16;3.37;;;1.70;;
11064;SDS011;5585;52.530;7.320;2022-09-21T01:42:44;3.03;;;1.60;;
11064;SDS011;5585;52.530;7.320;2022-09-21T01:45:12;2.80;;;1.40;;
11064;SDS011;5585;52.530;7.320;2022-09-21T01:47:42;3.33;;;2.07;;
11064;SDS011;5585;52.530;7.320;2022-09-21T01:50:12;3.73;;;1.80;;
11064;SDS011;5585;52.530;7.320;2022-09-21T01:52:40;3.37;;;2.23;;
11064;SDS011;5585;52.530;7.320;2022-09-21T01:55:09;3.23;;;1.80;;
11064;SDS011;5585;52.530;7.320;2022-09-21T01:57:39;1.77;;;1.63;;
11064;SDS011;5585;52.530;7.320;2022-09-21T02:00:08;1.57;;;1.30;;
11064;SDS011;5585;52.530;7.320;2022-09-21T02:02:35;2.60;;;1.30;;
11064;SDS011;5585;52.530;7.320;2022-09-21T02:05:04;2.90;;;1.90;;
11064;SDS011;5585;52.530;7.320;2022-09-21T02:07:31;2.13;;;1.60;;
11064;SDS011;5585;52.530;7.320;2022-09-21T02:09:58;1.57;;;1.40;;
11064;SDS011;5585;52.530;7.320;2022-09-21T02:12:25;2.87;;;1.70;;
11064;SDS011;5585;52.530;7.320;2022-09-21T02:14:52;1.93;;;1.43;;
11064;SDS011;5585;52.530;7.320;2022-09-21T02:17:23;2.10;;;1.60;;
11064;SDS011;5585;52.530;7.320;2022-09-21T02:19:54;2.97;;;1.87;;
11064;SDS011;5585;52.530;7.320;2022-09-21T02:22:28;4.90;;;2.57;;
11064;SDS011;5585;52.530;7.320;2022-09-21T02:25:00;2.77;;;1.90;;
11064;SDS011;5585;52.530;7.320;2022-09-21T02:27:31;1.70;;;1.60;;
11064;SDS011;5585;52.530;7.320;2022-09-21T02:30:02;2.30;;;1.80;;
11064;SDS011;5585;52.530;7.320;2022-09-21T02:32:31;2.63;;;1.73;;
11064;SDS011;5585;52.530;7.320;2022-09-21T02:35:01;2.87;;;1.63;;
11064;SDS011;5585;52.530;7.320;2022-09-21T02:37:33;2.17;;;1.97;;
11064;SDS011;5585;52.530;7.320;2022-09-21T02:40:02;2.20;;;1.83;;
11064;SDS011;5585;52.530;7.320;2022-09-21T02:42:30;4.53;;;1.70;;
11064;SDS011;5585;52.530;7.320;2022-09-21T02:44:58;3.27;;;1.90;;
11064;SDS011;5585;52.530;7.320;2022-09-21T02:47:27;2.40;;;1.80;;
11064;SDS011;5585;52.530;7.320;2022-09-21T02:49:57;3.17;;;1.73;;
11064;SDS011;5585;52.530;7.320;2022-09-21T02:52:25;2.87;;;2.10;;
11064;SDS011;5585;52.530;7.320;2022-09-21T02:54:53;3.03;;;2.17;;
11064;SDS011;5585;52.530;7.320;2022-09-21T02:57:21;3.07;;;2.20;;
11064;SDS011;5585;52.530;7.320;2022-09-21T02:59:48;3.23;;;2.07;;
11064;SDS011;5585;52.530;7.320;2022-09-21T03:02:15;3.67;;;2.13;;
11064;SDS011;5585;52.530;7.320;2022-09-21T03:04:43;2.93;;;2.43;;
11064;SDS011;5585;52.530;7.320;2022-09-21T03:07:11;6.17;;;2.40;;
11064;SDS011;5585;52.530;7.320;2022-09-21T03:09:38;2.90;;;2.10;;
11064;SDS011;5585;52.530;7.320;2022-09-21T03:12:06;2.73;;;2.33;;
11064;SDS011;5585;52.530;7.320;2022-09-21T03:14:32;3.10;;;2.40;;
11064;SDS011;5585;52.530;7.320;2022-09-21T03:16:59;3.70;;;2.40;;
11064;SDS011;5585;52.530;7.320;2022-09-21T03:19:25;3.43;;;2.33;;
11064;SDS011;5585;52.530;7.320;2022-09-21T03:21:52;3.53;;;2.60;;
11064;SDS011;5585;52.530;7.320;2022-09-21T03:24:19;2.93;;;2.20;;
11064;SDS011;5585;52.530;7.320;2022-09-21T03:27:00;3.17;;;2.30;;
11064;SDS011;5585;52.530;7.320;2022-09-21T03:29:28;3.23;;;1.97;;
11064;SDS011;5585;52.530;7.320;2022-09-21T03:31:54;5.10;;;2.30;;
11064;SDS011;5585;52.530;7.320;2022-09-21T03:34:20;2.63;;;2.10;;
11064;SDS011;5585;52.530;7.320;2022-09-21T03:36:47;4.50;;;2.50;;
11064;SDS011;5585;52.530;7.320;2022-09-21T03:39:13;2.60;;;2.13;;
11064;SDS011;5585;52.530;7.320;2022-09-21T03:41:40;3.50;;;2.33;;
11064;SDS011;5585;52.530;7.320;2022-09-21T03:44:06;3.10;;;2.33;;
11064;SDS011;5585;52.530;7.320;2022-09-21T03:46:34;2.73;;;2.20;;
11064;SDS011;5585;52.530;7.320;2022-09-21T03:49:00;4.27;;;2.40;;
11064;SDS011;5585;52.530;7.320;2022-09-21T03:51:27;3.97;;;2.30;;
11064;SDS011;5585;52.530;7.320;2022-09-21T03:53:55;3.50;;;2.20;;
11064;SDS011;5585;52.530;7.320;2022-09-21T03:56:22;3.23;;;2.63;;
11064;SDS011;5585;52.530;7.320;2022-09-21T03:58:48;3.90;;;2.23;;
11064;SDS011;5585;52.530;7.320;2022-09-21T04:01:15;3.17;;;2.20;;
11064;SDS011;5585;52.530;7.320;2022-09-21T04:03:42;4.37;;;2.60;;
11064;SDS011;5585;52.530;7.320;2022-09-21T04:06:09;3.33;;;2.20;;
11064;SDS011;5585;52.530;7.320;2022-09-21T04:08:36;3.17;;;2.10;;
11064;SDS011;5585;52.530;7.320;2022-09-21T04:11:07;3.10;;;2.20;;
11064;SDS011;5585;52.530;7.320;2022-09-21T04:13:34;3.57;;;1.90;;
11064;SDS011;5585;52.530;7.320;2022-09-21T04:16:00;2.50;;;2.30;;
11064;SDS011;5585;52.530;7.320;2022-09-21T04:18:27;3.30;;;2.10;;
11064;SDS011;5585;52.530;7.320;2022-09-21T04:20:55;3.23;;;2.20;;
11064;SDS011;5585;52.530;7.320;2022-09-21T04:23:21;2.53;;;2.20;;
11064;SDS011;5585;52.530;7.320;2022-09-21T04:25:48;3.43;;;2.53;;
11064;SDS011;5585;52.530;7.320;2022-09-21T04:28:15;3.47;;;2.40;;
11064;SDS011;5585;52.530;7.320;2022-09-21T04:30:41;3.47;;;2.50;;
11064;SDS011;5585;52.530;7.320;2022-09-21T04:33:08;3.50;;;2.33;;
11064;SDS011;5585;52.530;7.320;2022-09-21T04:35:34;4.43;;;2.73;;
11064;SDS011;5585;52.530;7.320;2022-09-21T04:38:02;3.10;;;2.70;;
11064;SDS011;5585;52.530;7.320;2022-09-21T04:40:29;4.17;;;2.43;;
11064;SDS011;5585;52.530;7.320;2022-09-21T04:42:55;3.50;;;2.37;;
11064;SDS011;5585;52.530;7.320;2022-09-21T04:45:22;3.03;;;2.30;;
11064;SDS011;5585;52.530;7.320;2022-09-21T04:47:49;4.43;;;2.30;;
11064;SDS011;5585;52.530;7.320;2022-09-21T04:50:16;4.43;;;2.50;;
11064;SDS011;5585;52.530;7.320;2022-09-21T04:52:43;2.90;;;2.60;;
11064;SDS011;5585;52.530;7.320;2022-09-21T04:55:11;3.03;;;2.50;;
11064;SDS011;5585;52.530;7.320;2022-09-21T04:57:37;5.10;;;2.80;;
11064;SDS011;5585;52.530;7.320;2022-09-21T05:00:04;3.03;;;2.10;;
11064;SDS011;5585;52.530;7.320;2022-09-21T05:02:31;3.83;;;2.80;;
11064;SDS011;5585;52.530;7.320;2022-09-21T05:04:57;3.47;;;2.37;;
11064;SDS011;5585;52.530;7.320;2022-09-21T05:07:24;3.17;;;2.50;;
11064;SDS011;5585;52.530;7.320;2022-09-21T05:09:50;4.60;;;2.70;;
11064;SDS011;5585;52.530;7.320;2022-09-21T05:12:29;1.93;;;1.77;;
11064;SDS011;5585;52.530;7.320;2022-09-21T05:14:55;2.87;;;2.30;;
11064;SDS011;5585;52.530;7.320;2022-09-21T05:17:22;4.77;;;2.43;;
11064;SDS011;5585;52.530;7.320;2022-09-21T05:19:49;4.27;;;2.90;;
11064;SDS011;5585;52.530;7.320;2022-09-21T05:22:15;3.10;;;2.80;;
11064;SDS011;5585;52.530;7.320;2022-09-21T05:24:42;3.30;;;2.73;;
11064;SDS011;5585;52.530;7.320;2022-09-21T05:27:08;3.67;;;2.70;;
11064;SDS011;5585;52.530;7.320;2022-09-21T05:29:37;3.27;;;2.80;;
11064;SDS011;5585;52.530;7.320;2022-09-21T05:32:04;3.83;;;2.80;;
11064;SDS011;5585;52.530;7.320;2022-09-21T05:34:35;5.60;;;2.67;;
11064;SDS011;5585;52.530;7.320;2022-09-21T05:37:06;3.77;;;2.73;;
11064;SDS011;5585;52.530;7.320;2022-09-21T05:39:35;3.93;;;2.90;;
11064;SDS011;5585;52.530;7.320;2022-09-21T05:42:02;4.57;;;3.00;;
11064;SDS011;5585;52.530;7.320;2022-09-21T05:44:29;3.57;;;2.80;;
11064;SDS011;5585;52.530;7.320;2022-09-21T05:46:58;4.73;;;2.57;;
11064;SDS011;5585;52.530;7.320;2022-09-21T05:49:27;3.53;;;2.87;;
11064;SDS011;5585;52.530;7.320;2022-09-21T05:51:57;4.43;;;3.00;;
11064;SDS011;5585;52.530;7.320;2022-09-21T05:54:28;6.10;;;3.30;;
11064;SDS011;5585;52.530;7.320;2022-09-21T05:57:01;2.80;;;2.50;;
11064;SDS011;5585;52.530;7.320;2022-09-21T05:59:33;4.03;;;2.40;;
11064;SDS011;5585;52.530;7.320;2022-09-21T06:02:06;5.60;;;3.30;;
11064;SDS011;5585;52.530;7.320;2022-09-21T06:04:34;3.73;;;3.00;;
11064;SDS011;5585;52.530;7.320;2022-09-21T06:07:00;3.80;;;3.10;;
11064;SDS011;5585;52.530;7.320;2022-09-21T06:09:27;3.40;;;3.10;;
11064;SDS011;5585;52.530;7.320;2022-09-21T06:11:53;3.63;;;2.90;;
11064;SDS011;5585;52.530;7.320;2022-09-21T06:14:20;3.40;;;2.83;;
11064;SDS011;5585;52.530;7.320;2022-09-21T06:16:49;4.37;;;2.90;;
11064;SDS011;5585;52.530;7.320;2022-09-21T06:19:17;4.20;;;3.03;;
11064;SDS011;5585;52.530;7.320;2022-09-21T06:21:44;6.30;;;3.20;;
11064;SDS011;5585;52.530;7.320;2022-09-21T06:24:10;4.83;;;3.03;;
11064;SDS011;5585;52.530;7.320;2022-09-21T06:26:37;5.03;;;3.30;;
11064;SDS011;5585;52.530;7.320;2022-09-21T06:29:03;3.23;;;2.87;;
11064;SDS011;5585;52.530;7.320;2022-09-21T06:31:30;3.87;;;2.83;;
11064;SDS011;5585;52.530;7.320;2022-09-21T06:33:56;2.77;;;2.30;;
11064;SDS011;5585;52.530;7.320;2022-09-21T06:36:24;3.50;;;2.80;;
11064;SDS011;5585;52.530;7.320;2022-09-21T06:38:51;3.60;;;2.47;;
11064;SDS011;5585;52.530;7.320;2022-09-21T06:41:17;4.43;;;3.07;;
11064;SDS011;5585;52.530;7.320;2022-09-21T06:43:43;3.17;;;2.87;;
11064;SDS011;5585;52.530;7.320;2022-09-21T06:46:10;3.67;;;2.70;;
11064;SDS011;5585;52.530;7.320;2022-09-21T06:48:36;2.70;;;2.33;;
11064;SDS011;5585;52.530;7.320;2022-09-21T06:51:03;3.57;;;2.90;;
11064;SDS011;5585;52.530;7.320;2022-09-21T06:53:32;4.13;;;2.53;;
11064;SDS011;5585;52.530;7.320;2022-09-21T06:55:59;3.93;;;2.27;;
11064;SDS011;5585;52.530;7.320;2022-09-21T06:58:26;3.23;;;2.60;;
11064;SDS011;5585;52.530;7.320;2022-09-21T07:00:52;3.57;;;2.50;;
11064;SDS011;5585;52.530;7.320;2022-09-21T07:03:19;2.47;;;2.27;;
11064;SDS011;5585;52.530;7.320;2022-09-21T07:05:45;7.20;;;2.90;;
11064;SDS011;5585;52.530;7.320;2022-09-21T07:08:12;3.03;;;2.63;;
11064;SDS011;5585;52.530;7.320;2022-09-21T07:10:40;2.93;;;2.60;;
11064;SDS011;5585;52.530;7.320;2022-09-21T07:13:06;4.40;;;2.53;;
11064;SDS011;5585;52.530;7.320;2022-09-21T07:15:34;2.93;;;2.60;;
11064;SDS011;5585;52.530;7.320;2022-09-21T07:18:00;3.37;;;2.33;;
11064;SDS011;5585;52.530;7.320;2022-09-21T07:20:35;2.43;;;2.20;;
11064;SDS011;5585;52.530;7.320;2022-09-21T07:23:08;2.53;;;2.33;;
11064;SDS011;5585;52.530;7.320;2022-09-21T07:25:35;3.80;;;2.20;;
11064;SDS011;5585;52.530;7.320;2022-09-21T07:28:03;3.30;;;2.17;;
11064;SDS011;5585;52.530;7.320;2022-09-21T07:30:29;3.37;;;2.23;;
11064;SDS011;5585;52.530;7.320;2022-09-21T07:32:56;3.83;;;2.77;;
11064;SDS011;5585;52.530;7.320;2022-09-21T07:35:22;3.10;;;2.63;;
11064;SDS011;5585;52.530;7.320;2022-09-21T07:37:49;2.93;;;2.53;;
11064;SDS011;5585;52.530;7.320;2022-09-21T07:40:15;3.50;;;2.57;;
11064;SDS011;5585;52.530;7.320;2022-09-21T07:42:42;3.83;;;2.63;;
11064;SDS011;5585;52.530;7.320;2022-09-21T07:45:11;2.80;;;2.60;;
11064;SDS011;5585;52.530;7.320;2022-09-21T07:47:37;4.37;;;2.70;;
11064;SDS011;5585;52.530;7.320;2022-09-21T07:50:04;3.53;;;2.67;;
11064;SDS011;5585;52.530;7.320;2022-09-21T07:52:30;3.60;;;2.37;;
11064;SDS011;5585;52.530;7.320;2022-09-21T07:54:57;3.13;;;2.00;;
11064;SDS011;5585;52.530;7.320;2022-09-21T07:57:23;4.63;;;2.20;;
11064;SDS011;5585;52.530;7.320;2022-09-21T08:00:08;3.17;;;2.43;;
11064;SDS011;5585;52.530;7.320;2022-09-21T08:02:36;3.87;;;2.60;;
11064;SDS011;5585;52.530;7.320;2022-09-21T08:05:03;5.83;;;3.03;;
11064;SDS011;5585;52.530;7.320;2022-09-21T08:07:29;3.80;;;2.40;;
11064;SDS011;5585;52.530;7.320;2022-09-21T08:09:56;3.87;;;2.43;;
11064;SDS011;5585;52.530;7.320;2022-09-21T08:12:22;3.50;;;1.80;;
11064;SDS011;5585;52.530;7.320;2022-09-21T08:14:49;4.97;;;2.30;;
11064;SDS011;5585;52.530;7.320;2022-09-21T08:17:16;3.63;;;1.97;;
11064;SDS011;5585;52.530;7.320;2022-09-21T08:19:43;3.60;;;1.63;;
11064;SDS011;5585;52.530;7.320;2022-09-21T08:22:10;5.73;;;2.00;;
11064;SDS011;5585;52.530;7.320;2022-09-21T08:24:37;3.60;;;1.53;;
11064;SDS011;5585;52.530;7.320;2022-09-21T08:27:08;3.53;;;1.63;;
11064;SDS011;5585;52.530;7.320;2022-09-21T08:29:35;4.43;;;1.87;;
11064;SDS011;5585;52.530;7.320;2022-09-21T08:32:01;3.47;;;2.20;;
11064;SDS011;5585;52.530;7.320;2022-09-21T08:34:28;2.57;;;1.90;;
11064;SDS011;5585;52.530;7.320;2022-09-21T08:36:56;2.80;;;1.87;;
11064;SDS011;5585;52.530;7.320;2022-09-21T08:39:22;4.07;;;1.93;;
11064;SDS011;5585;52.530;7.320;2022-09-21T08:41:59;4.10;;;1.90;;
11064;SDS011;5585;52.530;7.320;2022-09-21T08:44:31;4.20;;;1.77;;
11064;SDS011;5585;52.530;7.320;2022-09-21T08:47:00;6.43;;;1.80;;
11064;SDS011;5585;52.530;7.320;2022-09-21T08:49:28;3.20;;;1.60;;
11064;SDS011;5585;52.530;7.320;2022-09-21T08:51:57;3.70;;;1.53;;
11064;SDS011;5585;52.530;7.320;2022-09-21T08:54:26;4.27;;;1.80;;
11064;SDS011;5585;52.530;7.320;2022-09-21T08:56:53;3.17;;;1.47;;
11064;SDS011;5585;52.530;7.320;2022-09-21T08:59:20;2.37;;;1.30;;
11064;SDS011;5585;52.530;7.320;2022-09-21T09:01:50;2.53;;;1.20;;
11064;SDS011;5585;52.530;7.320;2022-09-21T09:04:21;4.03;;;1.30;;
11064;SDS011;5585;52.530;7.320;2022-09-21T09:06:51;2.93;;;1.30;;
11064;SDS011;5585;52.530;7.320;2022-09-21T09:09:27;4.00;;;1.33;;
11064;SDS011;5585;52.530;7.320;2022-09-21T09:12:02;4.50;;;1.03;;
11064;SDS011;5585;52.530;7.320;2022-09-21T09:14:39;4.37;;;1.20;;
11064;SDS011;5585;52.530;7.320;2022-09-21T09:17:15;2.90;;;1.30;;
11064;SDS011;5585;52.530;7.320;2022-09-21T09:19:46;5.17;;;1.10;;
11064;SDS011;5585;52.530;7.320;2022-09-21T09:22:16;4.03;;;1.10;;
11064;SDS011;5585;52.530;7.320;2022-09-21T09:24:47;3.37;;;0.77;;
11064;SDS011;5585;52.530;7.320;2022-09-21T09:27:15;3.70;;;0.90;;
11064;SDS011;5585;52.530;7.320;2022-09-21T09:29:45;2.50;;;0.83;;
11064;SDS011;5585;52.530;7.320;2022-09-21T09:32:16;3.80;;;1.10;;
11064;SDS011;5585;52.530;7.320;2022-09-21T09:34:43;5.63;;;1.67;;
11064;SDS011;5585;52.530;7.320;2022-09-21T09:37:11;2.90;;;0.90;;
11064;SDS011;5585;52.530;7.320;2022-09-21T09:39:37;1.45;;;0.60;;
11064;SDS011;5585;52.530;7.320;2022-09-21T09:42:15;1.63;;;0.63;;
11064;SDS011;5585;52.530;7.320;2022-09-21T09:44:53;4.20;;;0.77;;
11064;SDS011;5585;52.530;7.320;2022-09-21T09:47:25;3.05;;;0.70;;
11064;SDS011;5585;52.530;7.320;2022-09-21T09:49:59;2.67;;;0.70;;
11064;SDS011;5585;52.530;7.320;2022-09-21T09:52:26;1.48;;;0.60;;
11064;SDS011;5585;52.530;7.320;2022-09-21T09:54:54;4.28;;;1.17;;
11064;SDS011;5585;52.530;7.320;2022-09-21T09:57:24;4.05;;;1.00;;
11064;SDS011;5585;52.530;7.320;2022-09-21T09:59:53;2.55;;;0.90;;
11064;SDS011;5585;52.530;7.320;2022-09-21T10:02:20;2.88;;;0.70;;
11064;SDS011;5585;52.530;7.320;2022-09-21T10:04:56;3.63;;;0.63;;
11064;SDS011;5585;52.530;7.320;2022-09-21T10:07:34;1.38;;;0.65;;
11064;SDS011;5585;52.530;7.320;2022-09-21T10:10:00;3.03;;;0.90;;
11064;SDS011;5585;52.530;7.320;2022-09-21T10:12:28;3.92;;;0.70;;
11064;SDS011;5585;52.530;7.320;2022-09-21T10:14:55;1.92;;;0.82;;
11064;SDS011;5585;52.530;7.320;2022-09-21T10:17:24;3.40;;;0.98;;
11064;SDS011;5585;52.530;7.320;2022-09-21T10:19:57;2.63;;;0.73;;
11064;SDS011;5585;52.530;7.320;2022-09-21T10:22:24;4.28;;;0.90;;
11064;SDS011;5585;52.530;7.320;2022-09-21T10:24:50;3.15;;;0.95;;
11064;SDS011;5585;52.530;7.320;2022-09-21T10:27:20;3.40;;;0.80;;
11064;SDS011;5585;52.530;7.320;2022-09-21T10:29:48;2.28;;;0.90;;
11064;SDS011;5585;52.530;7.320;2022-09-21T10:32:22;2.58;;;0.80;;
11064;SDS011;5585;52.530;7.320;2022-09-21T10:35:11;4.50;;;1.23;;
11064;SDS011;5585;52.530;7.320;2022-09-21T10:37:38;3.78;;;1.30;;
11064;SDS011;5585;52.530;7.320;2022-09-21T10:40:08;2.13;;;1.00;;
11064;SDS011;5585;52.530;7.320;2022-09-21T10:42:47;2.33;;;0.90;;
11064;SDS011;5585;52.530;7.320;2022-09-21T10:45:16;1.73;;;0.75;;
11064;SDS011;5585;52.530;7.320;2022-09-21T10:47:45;2.47;;;1.17;;
11064;SDS011;5585;52.530;7.320;2022-09-21T10:50:20;3.03;;;1.10;;
11064;SDS011;5585;52.530;7.320;2022-09-21T10:52:47;2.58;;;1.08;;
11064;SDS011;5585;52.530;7.320;2022-09-21T10:55:14;5.03;;;1.00;;
11064;SDS011;5585;52.530;7.320;2022-09-21T10:57:41;2.78;;;0.70;;
11064;SDS011;5585;52.530;7.320;2022-09-21T11:00:11;3.17;;;0.90;;
11064;SDS011;5585;52.530;7.320;2022-09-21T11:02:39;1.52;;;0.70;;
11064;SDS011;5585;52.530;7.320;2022-09-21T11:05:10;2.55;;;1.10;;
11064;SDS011;5585;52.530;7.320;2022-09-21T11:07:38;2.53;;;1.00;;
11064;SDS011;5585;52.530;7.320;2022-09-21T11:10:09;3.35;;;0.73;;
11064;SDS011;5585;52.530;7.320;2022-09-21T11:12:40;2.63;;;0.80;;
11064;SDS011;5585;52.530;7.320;2022-09-21T11:15:13;3.05;;;1.25;;
11064;SDS011;5585;52.530;7.320;2022-09-21T11:17:43;2.80;;;0.70;;
11064;SDS011;5585;52.530;7.320;2022-09-21T11:20:15;3.50;;;0.75;;
11064;SDS011;5585;52.530;7.320;2022-09-21T11:22:48;3.78;;;0.80;;
11064;SDS011;5585;52.530;7.320;2022-09-21T11:25:23;3.03;;;0.68;;
11064;SDS011;5585;52.530;7.320;2022-09-21T11:27:54;3.33;;;0.75;;
11064;SDS011;5585;52.530;7.320;2022-09-21T11:30:22;2.20;;;0.70;;
11064;SDS011;5585;52.530;7.320;2022-09-21T11:32:55;2.92;;;0.73;;
11064;SDS011;5585;52.530;7.320;2022-09-21T11:35:34;2.53;;;0.80;;
11064;SDS011;5585;52.530;7.320;2022-09-21T11:38:03;2.63;;;0.70;;
11064;SDS011;5585;52.530;7.320;2022-09-21T11:40:48;2.22;;;0.43;;
11064;SDS011;5585;52.530;7.320;2022-09-21T11:43:23;2.05;;;0.68;;
11064;SDS011;5585;52.530;7.320;2022-09-21T11:45:54;2.30;;;0.57;;
11064;SDS011;5585;52.530;7.320;2022-09-21T11:48:29;1.95;;;0.65;;
11064;SDS011;5585;52.530;7.320;2022-09-21T11:50:59;1.55;;;0.68;;
11064;SDS011;5585;52.530;7.320;2022-09-21T11:53:38;2.15;;;0.70;;
11064;SDS011;5585;52.530;7.320;2022-09-21T11:56:16;1.48;;;0.50;;
11064;SDS011;5585;52.530;7.320;2022-09-21T11:58:46;1.80;;;0.60;;
11064;SDS011;5585;52.530;7.320;2022-09-21T12:01:17;2.17;;;0.60;;
11064;SDS011;5585;52.530;7.320;2022-09-21T12:03:53;3.00;;;0.52;;
11064;SDS011;5585;52.530;7.320;2022-09-21T12:06:26;1.40;;;0.60;;
11064;SDS011;5585;52.530;7.320;2022-09-21T12:11:38;2.28;;;0.52;;
11064;SDS011;5585;52.530;7.320;2022-09-21T12:14:11;1.60;;;0.47;;
11064;SDS011;5585;52.530;7.320;2022-09-21T12:16:40;1.45;;;0.60;;
11064;SDS011;5585;52.530;7.320;2022-09-21T12:19:12;2.45;;;0.75;;
11064;SDS011;5585;52.530;7.320;2022-09-21T12:21:42;2.08;;;0.60;;
11064;SDS011;5585;52.530;7.320;2022-09-21T12:24:12;2.38;;;0.93;;
11064;SDS011;5585;52.530;7.320;2022-09-21T12:26:40;2.35;;;0.77;;
11064;SDS011;5585;52.530;7.320;2022-09-21T12:29:11;2.67;;;0.70;;
11064;SDS011;5585;52.530;7.320;2022-09-21T12:31:40;1.85;;;0.50;;
11064;SDS011;5585;52.530;7.320;2022-09-21T12:34:08;3.90;;;1.20;;
11064;SDS011;5585;52.530;7.320;2022-09-21T12:36:40;2.97;;;0.90;;
11064;SDS011;5585;52.530;7.320;2022-09-21T12:39:11;2.38;;;0.90;;
11064;SDS011;5585;52.530;7.320;2022-09-21T12:41:40;1.55;;;0.45;;
11064;SDS011;5585;52.530;7.320;2022-09-21T12:44:14;1.98;;;0.52;;
11064;SDS011;5585;52.530;7.320;2022-09-21T12:46:42;1.48;;;0.47;;
11064;SDS011;5585;52.530;7.320;2022-09-21T12:49:13;0.43;;;0.38;;
11064;SDS011;5585;52.530;7.320;2022-09-21T12:51:43;1.58;;;0.70;;
11064;SDS011;5585;52.530;7.320;2022-09-21T12:54:13;1.73;;;0.63;;
11064;SDS011;5585;52.530;7.320;2022-09-21T12:56:44;0.88;;;0.50;;
11064;SDS011;5585;52.530;7.320;2022-09-21T12:59:17;3.33;;;0.80;;
11064;SDS011;5585;52.530;7.320;2022-09-21T13:01:48;2.60;;;0.73;;
11064;SDS011;5585;52.530;7.320;2022-09-21T13:09:50;2.42;;;0.60;;
11064;SDS011;5585;52.530;7.320;2022-09-21T13:12:18;1.80;;;0.80;;
11064;SDS011;5585;52.530;7.320;2022-09-21T13:14:45;1.58;;;0.60;;
11064;SDS011;5585;52.530;7.320;2022-09-21T13:17:17;1.73;;;0.63;;
11064;SDS011;5585;52.530;7.320;2022-09-21T13:19:49;2.10;;;0.70;;
11064;SDS011;5585;52.530;7.320;2022-09-21T13:22:21;2.28;;;0.60;;
11064;SDS011;5585;52.530;7.320;2022-09-21T13:24:57;2.05;;;0.82;;
11064;SDS011;5585;52.530;7.320;2022-09-21T13:30:27;1.63;;;0.68;;
11064;SDS011;5585;52.530;7.320;2022-09-21T13:32:54;2.22;;;0.50;;
11064;SDS011;5585;52.530;7.320;2022-09-21T13:38:24;2.10;;;0.57;;
11064;SDS011;5585;52.530;7.320;2022-09-21T13:40:56;0.63;;;0.30;;
11064;SDS011;5585;52.530;7.320;2022-09-21T13:43:24;1.08;;;0.47;;
11064;SDS011;5585;52.530;7.320;2022-09-21T13:46:10;1.98;;;0.50;;
11064;SDS011;5585;52.530;7.320;2022-09-21T13:48:56;1.98;;;0.40;;
11064;SDS011;5585;52.530;7.320;2022-09-21T13:51:23;3.35;;;0.98;;
11064;SDS011;5585;52.530;7.320;2022-09-21T13:53:51;1.60;;;0.50;;
11064;SDS011;5585;52.530;7.320;2022-09-21T13:56:22;2.67;;;0.57;;
11064;SDS011;5585;52.530;7.320;2022-09-21T13:58:51;1.13;;;0.47;;
11064;SDS011;5585;52.530;7.320;2022-09-21T14:01:18;1.13;;;0.60;;
11064;SDS011;5585;52.530;7.320;2022-09-21T14:03:46;2.65;;;0.70;;
11064;SDS011;5585;52.530;7.320;2022-09-21T14:06:15;1.95;;;0.70;;
11064;SDS011;5585;52.530;7.320;2022-09-21T14:08:46;0.70;;;0.50;;
11064;SDS011;5585;52.530;7.320;2022-09-21T14:11:15;1.80;;;0.65;;
11064;SDS011;5585;52.530;7.320;2022-09-21T14:13:43;1.42;;;0.40;;
11064;SDS011;5585;52.530;7.320;2022-09-21T14:24:33;1.45;;;0.60;;
11064;SDS011;5585;52.530;7.320;2022-09-21T14:27:01;0.90;;;0.30;;
11064;SDS011;5585;52.530;7.320;2022-09-21T14:29:35;0.77;;;0.38;;
11064;SDS011;5585;52.530;7.320;2022-09-21T14:32:03;1.10;;;0.50;;
11064;SDS011;5585;52.530;7.320;2022-09-21T14:34:31;1.67;;;0.40;;
11064;SDS011;5585;52.530;7.320;2022-09-21T14:37:01;0.57;;;0.32;;
11064;SDS011;5585;52.530;7.320;2022-09-21T14:39:29;0.65;;;0.30;;
11064;SDS011;5585;52.530;7.320;2022-09-21T14:42:01;1.20;;;0.40;;
11064;SDS011;5585;52.530;7.320;2022-09-21T14:44:29;0.98;;;0.30;;
11064;SDS011;5585;52.530;7.320;2022-09-21T14:50:00;1.23;;;0.50;;
11064;SDS011;5585;52.530;7.320;2022-09-21T14:52:32;2.20;;;0.50;;
11064;SDS011;5585;52.530;7.320;2022-09-21T14:55:06;1.50;;;0.40;;
11064;SDS011;5585;52.530;7.320;2022-09-21T14:57:39;2.42;;;0.60;;
11064;SDS011;5585;52.530;7.320;2022-09-21T15:00:13;0.88;;;0.40;;
11064;SDS011;5585;52.530;7.320;2022-09-21T15:02:45;1.05;;;0.30;;
11064;SDS011;5585;52.530;7.320;2022-09-21T15:05:17;3.28;;;0.75;;
11064;SDS011;5585;52.530;7.320;2022-09-21T15:07:46;1.17;;;0.55;;
11064;SDS011;5585;52.530;7.320;2022-09-21T15:10:33;0.88;;;0.60;;
11064;SDS011;5585;52.530;7.320;2022-09-21T15:13:23;3.00;;;1.05;;
11064;SDS011;5585;52.530;7.320;2022-09-21T15:16:03;2.95;;;1.17;;
11064;SDS011;5585;52.530;7.320;2022-09-21T15:18:32;3.38;;;0.80;;
11064;SDS011;5585;52.530;7.320;2022-09-21T15:21:02;3.08;;;0.90;;
11064;SDS011;5585;52.530;7.320;2022-09-21T15:23:30;1.42;;;0.73;;
11064;SDS011;5585;52.530;7.320;2022-09-21T15:25:58;1.60;;;0.52;;
11064;SDS011;5585;52.530;7.320;2022-09-21T15:28:27;2.08;;;0.60;;
11064;SDS011;5585;52.530;7.320;2022-09-21T15:30:59;1.45;;;0.30;;
11064;SDS011;5585;52.530;7.320;2022-09-21T15:33:26;3.05;;;0.68;;
11064;SDS011;5585;52.530;7.320;2022-09-21T15:35:52;1.23;;;0.40;;
11064;SDS011;5585;52.530;7.320;2022-09-21T15:38:30;1.92;;;0.52;;
11064;SDS011;5585;52.530;7.320;2022-09-21T15:40:58;2.92;;;0.60;;